Time;durP1;ratioP1;P1;durP2;ratioP2;P2;SDS_P1;SDS_P2;PMS_P1;PMS_P2;Temp;Humidity;BMP_temperature;BMP_pressure;BME280_temperature;BME280_humidity;BME280_pressure;Samples;Min_cycle;Max_cycle;Signal;HPM_P1;HPM_P2
2021/06/06 00:01:44;;;;;;;1999.90;999.90;;;;;;;17.30;76.78;98456.25;5022604;28;20045;-67
2021/06/06 00:04:15;;;;;;;1999.90;999.90;;;;;;;17.43;76.13;98452.13;5029090;28;20431;-67
2021/06/06 00:06:54;;;;;;;1999.90;999.90;;;;;;;17.50;75.64;98453.44;5030779;28;20049;-67
2021/06/06 00:09:21;;;;;;;1999.90;999.90;;;;;;;17.46;75.00;98453.34;5027921;28;20049;-65
2021/06/06 00:11:52;;;;;;;1999.90;999.90;;;;;;;17.32;75.06;98464.25;5030679;28;20045;-66
2021/06/06 00:14:30;;;;;;;1999.90;999.90;;;;;;;17.27;75.02;98461.75;5031240;28;20061;-66
2021/06/06 00:16:59;;;;;;;1999.90;999.90;;;;;;;17.21;75.44;98462.06;5028998;28;20366;-66
2021/06/06 00:19:27;;;;;;;1999.90;999.90;;;;;;;16.97;76.38;98465.94;5027031;28;20061;-66
2021/06/06 00:21:56;;;;;;;1999.90;999.90;;;;;;;16.65;77.60;98473.56;5031395;28;20500;-66
2021/06/06 00:24:27;;;;;;;1999.90;999.90;;;;;;;16.65;78.03;98476.34;5028454;28;20053;-65
2021/06/06 00:26:55;;;;;;;1999.90;999.90;;;;;;;16.31;78.92;98473.16;5030193;28;20080;-66
2021/06/06 00:29:22;;;;;;;1999.90;999.90;;;;;;;16.37;79.29;98466.13;5031608;28;20057;-65
2021/06/06 00:31:49;;;;;;;1999.90;999.90;;;;;;;16.47;78.82;98471.16;5030927;28;20111;-66
2021/06/06 00:34:16;;;;;;;1999.90;999.90;;;;;;;16.62;78.36;98460.34;5030386;28;20080;-67
2021/06/06 00:36:43;;;;;;;1999.90;999.90;;;;;;;16.69;78.07;98466.09;5028104;28;20061;-65
2021/06/06 00:39:11;;;;;;;1999.90;999.90;;;;;;;16.61;77.87;98473.47;5027427;28;20319;-66
2021/06/06 00:41:40;;;;;;;1999.90;999.90;;;;;;;16.47;78.72;98468.34;5030692;28;20045;-67
2021/06/06 00:44:08;;;;;;;1999.90;999.90;;;;;;;16.63;78.35;98461.94;5029272;28;20092;-67
2021/06/06 00:46:35;;;;;;;1999.90;999.90;;;;;;;16.70;77.87;98467.69;5031445;28;20049;-66
2021/06/06 00:49:04;;;;;;;1999.90;999.90;;;;;;;16.69;77.83;98466.09;5028133;28;20705;-66
2021/06/06 00:51:48;;;;;;;1999.90;999.90;;;;;;;16.70;78.09;98467.69;5027575;28;20123;-66
2021/06/06 00:54:23;;;;;;;1999.90;999.90;;;;;;;16.73;78.24;98464.16;5029796;28;20050;-66
2021/06/06 00:56:56;;;;;;;1999.90;999.90;;;;;;;16.69;77.89;98461.28;5031893;28;20450;-66
2021/06/06 00:59:26;;;;;;;1999.90;999.90;;;;;;;16.76;76.17;98463.44;5030472;28;20485;-66
2021/06/06 01:01:53;;;;;;;1999.90;999.90;;;;;;;16.63;76.44;98470.31;5032664;28;20045;-67
2021/06/06 01:04:21;;;;;;;1999.90;999.90;;;;;;;16.68;75.72;98465.25;5032447;28;20050;-67
2021/06/06 01:06:51;;;;;;;1999.90;999.90;;;;;;;16.51;76.62;98458.09;5032198;28;20049;-66
2021/06/06 01:09:21;;;;;;;1999.90;999.90;;;;;;;16.31;77.75;98456.41;5032589;28;20452;-67
2021/06/06 01:11:54;;;;;;;1999.90;999.90;;;;;;;16.17;77.96;98463.25;5032449;28;20077;-67
2021/06/06 01:14:34;;;;;;;1999.90;999.90;;;;;;;15.97;78.90;98458.75;5031413;28;20057;-65
2021/06/06 01:17:08;;;;;;;1999.90;999.90;;;;;;;15.39;81.74;98456.38;5033310;28;20045;-66
2021/06/06 01:19:53;;;;;;;1999.90;999.90;;;;;;;15.64;81.40;98457.88;5032357;28;20076;-66
2021/06/06 01:22:37;;;;;;;1999.90;999.90;;;;;;;15.57;81.64;98456.88;5032947;28;20053;-66
2021/06/06 01:25:14;;;;;;;1999.90;999.90;;;;;;;15.52;82.29;98457.13;5033316;28;20057;-66
2021/06/06 01:27:46;;;;;;;1999.90;999.90;;;;;;;15.55;82.60;98456.44;5031341;28;20385;-66
2021/06/06 01:30:21;;;;;;;1999.90;999.90;;;;;;;15.68;82.92;98449.63;5029676;28;20041;-65
2021/06/06 01:33:11;;;;;;;1999.90;999.90;;;;;;;15.94;81.67;98448.31;5034582;28;20389;-66
2021/06/06 01:35:48;;;;;;;1999.90;999.90;;;;;;;15.97;81.95;98451.22;5032810;28;20061;-66
2021/06/06 01:38:21;;;;;;;1999.90;999.90;;;;;;;16.15;81.20;98450.81;5030642;28;20050;-66
2021/06/06 01:40:53;;;;;;;1999.90;999.90;;;;;;;16.17;81.38;98446.50;5032713;28;20103;-67
2021/06/06 01:43:21;;;;;;;;;;;;;;;16.02;82.67;98455.72;5033794;28;20049;-66
2021/06/06 01:45:55;;;;;;;1999.90;999.90;;;;;;;16.18;81.93;98448.16;5032599;28;19921;-65
2021/06/06 01:48:22;;;;;;;1999.90;999.90;;;;;;;16.13;82.15;98442.81;5033478;28;20052;-66
2021/06/06 01:51:04;;;;;;;1999.90;999.90;;;;;;;16.17;81.97;98446.50;5031894;28;20045;-66
2021/06/06 01:53:31;;;;;;;1999.90;999.90;;;;;;;16.30;81.62;98454.78;5032406;28;20111;-66
2021/06/06 01:56:01;;;;;;;1999.90;999.90;;;;;;;16.23;82.30;98457.41;5033458;28;20045;-66
2021/06/06 01:58:28;;;;;;;1999.90;999.90;;;;;;;16.31;81.71;98456.41;5031137;28;20381;-66
2021/06/06 02:01:17;;;;;;;1999.90;999.90;;;;;;;16.22;81.93;98453.00;5030662;28;20389;-66
2021/06/06 02:03:49;;;;;;;1999.90;999.90;;;;;;;16.22;81.70;98464.16;5032036;28;20485;-66
2021/06/06 02:06:19;;;;;;;1999.90;999.90;;;;;;;16.18;81.02;98459.31;5032016;28;20497;-66
2021/06/06 02:08:47;;;;;;;1999.90;999.90;;;;;;;16.26;80.38;98468.66;5031048;28;20381;-66
2021/06/06 02:11:19;;;;;;;1999.90;999.90;;;;;;;16.33;79.73;98471.63;5033790;28;20100;-66
2021/06/06 02:13:56;;;;;;;1999.90;999.90;;;;;;;16.16;80.50;98466.41;5032462;28;20095;-66
2021/06/06 02:16:27;;;;;;;1999.90;999.90;;;;;;;15.93;81.12;98469.81;5032456;28;20103;-67
2021/06/06 02:18:54;;;;;;;1999.90;999.90;;;;;;;15.89;81.88;98457.75;5032338;28;20350;-67
2021/06/06 02:21:22;;;;;;;1999.90;999.90;;;;;;;15.71;82.76;98456.47;5031424;28;20045;-66
2021/06/06 02:23:50;;;;;;;1999.90;999.90;;;;;;;15.87;82.42;98459.28;5031896;28;20099;-66
2021/06/06 02:26:32;;;;;;;1999.90;999.90;;;;;;;15.92;81.78;98456.25;5031259;28;20053;-66
2021/06/06 02:29:24;;;;;;;1999.90;999.90;;;;;;;15.91;81.30;98454.59;5030474;28;20164;-66
2021/06/06 02:32:32;;;;;;;1999.90;999.90;;;;;;;15.83;81.75;98457.22;5032115;28;20103;-66
2021/06/06 02:35:23;;;;;;;1999.90;999.90;;;;;;;15.78;81.70;98449.13;4961737;28;20110;-66
2021/06/06 02:37:56;;;;;;;1999.90;999.90;;;;;;;15.87;81.47;98464.84;4972101;28;20050;-66
2021/06/06 02:40:32;;;;;;;1999.90;999.90;;;;;;;15.81;81.55;98465.13;5011700;28;20338;-66
2021/06/06 02:43:05;;;;;;;1999.90;999.90;;;;;;;15.90;81.03;98466.91;5017769;28;20386;-66
2021/06/06 02:45:33;;;;;;;1999.90;999.90;;;;;;;15.79;81.39;98459.09;5031704;28;20115;-66
2021/06/06 02:48:08;;;;;;;1999.90;999.90;;;;;;;15.93;80.98;98466.19;5026422;28;20119;-65
2021/06/06 02:50:38;;;;;;;1999.90;999.90;;;;;;;15.90;80.87;98469.72;5032217;28;20426;-66
2021/06/06 02:53:14;;;;;;;1999.90;999.90;;;;;;;15.92;81.24;98467.41;5032320;28;20104;-66
2021/06/06 02:56:10;;;;;;;1999.90;999.90;;;;;;;15.95;81.23;98475.84;5031354;28;20394;-66
2021/06/06 02:58:49;;;;;;;1999.90;999.90;;;;;;;16.06;80.85;98481.69;5027930;28;20104;-67
2021/06/06 03:01:22;;;;;;;1999.90;999.90;;;;;;;16.08;82.37;98476.56;5032131;28;20389;-66
2021/06/06 03:03:50;;;;;;;1999.90;999.90;;;;;;;16.21;81.83;98480.06;5030991;28;20045;-66
2021/06/06 03:06:47;;;;;;;1999.90;999.90;;;;;;;16.27;80.92;98484.22;5031749;28;20095;-66
2021/06/06 03:09:15;;;;;;;1999.90;999.90;;;;;;;16.14;81.17;98486.28;5019136;28;20049;-66
2021/06/06 03:11:44;;;;;;;1999.90;999.90;;;;;;;16.16;80.95;98478.38;5032460;28;20405;-66
2021/06/06 03:14:15;;;;;;;1999.90;999.90;;;;;;;16.22;81.52;98487.28;5031011;28;20095;-66
2021/06/06 03:16:55;;;;;;;1999.90;999.90;;;;;;;16.15;81.61;98479.56;5031097;28;20049;-66
2021/06/06 03:19:25;;;;;;;1999.90;999.90;;;;;;;16.06;82.08;98478.91;5032022;28;20083;-65
2021/06/06 03:21:53;;;;;;;1999.90;999.90;;;;;;;16.23;81.76;98482.53;5031571;28;20095;-66
2021/06/06 03:24:29;;;;;;;1999.90;999.90;;;;;;;16.30;81.75;98477.94;5032620;28;20053;-66
2021/06/06 03:26:56;;;;;;;1999.90;999.90;;;;;;;16.39;81.41;98483.31;5030993;28;20423;-65
2021/06/06 03:29:34;;;;;;;1999.90;999.90;;;;;;;16.46;81.37;98486.25;5031322;28;20049;-66
2021/06/06 03:32:09;;;;;;;1999.90;999.90;;;;;;;16.66;80.87;98486.34;5032686;28;20056;-66
2021/06/06 03:34:36;;;;;;;1999.90;999.90;;;;;;;16.83;80.66;98485.94;5031508;28;20111;-65
2021/06/06 03:37:04;;;;;;;1999.90;999.90;;;;;;;17.05;79.80;98476.06;5031031;28;20103;-65
2021/06/06 03:39:31;;;;;;;1999.90;999.90;;;;;;;17.29;77.98;98487.34;5031112;28;20500;-66
2021/06/06 03:42:00;;;;;;;1999.90;999.90;;;;;;;17.52;76.80;98485.44;5030999;28;20050;-65
2021/06/06 03:44:28;;;;;;;1999.90;999.90;;;;;;;17.88;76.06;98486.13;5031533;28;20068;-66
2021/06/06 03:46:56;;;;;;;1999.90;999.90;;;;;;;18.00;75.93;98484.34;5032375;28;20187;-66
2021/06/06 03:49:24;;;;;;;1999.90;999.90;;;;;;;18.18;74.94;98479.88;5030091;28;20053;-65
2021/06/06 03:51:52;;;;;;;1999.90;999.90;;;;;;;18.55;73.46;98479.28;5030138;28;20494;-65
2021/06/06 03:54:19;;;;;;;1999.90;999.90;;;;;;;18.73;72.28;98473.94;5031678;28;20382;-65
2021/06/06 03:56:49;;;;;;;1999.90;999.90;;;;;;;18.94;71.65;98483.88;5030963;28;20413;-65
2021/06/06 03:59:17;;;;;;;1999.90;999.90;;;;;;;18.98;71.35;98479.13;5029800;28;20041;-65
2021/06/06 04:01:45;;;;;;;1999.90;999.90;;;;;;;19.07;71.49;98482.47;5035388;28;20057;-65
2021/06/06 04:04:12;;;;;;;1999.90;999.90;;;;;;;19.46;71.11;98486.97;5034354;28;20045;-65
2021/06/06 04:06:39;;;;;;;1999.90;999.90;;;;;;;19.74;69.98;98486.50;5034654;28;20176;-65
2021/06/06 04:09:07;;;;;;;1999.90;999.90;;;;;;;19.93;69.52;98488.31;5034962;28;20049;-66
2021/06/06 04:11:36;;;;;;;1999.90;999.90;;;;;;;20.08;70.30;98494.06;5032190;28;20045;-65
2021/06/06 04:14:04;;;;;;;1999.90;999.90;;;;;;;20.38;69.20;98499.53;5034939;28;20057;-66
2021/06/06 04:16:31;;;;;;;1999.90;999.90;;;;;;;20.32;69.33;98493.50;5034607;28;20102;-66
2021/06/06 04:18:58;;;;;;;1999.90;999.90;;;;;;;20.63;68.81;98502.56;5033413;28;20054;-66
2021/06/06 04:21:28;;;;;;;1999.90;999.90;;;;;;;20.48;69.46;98498.84;5033153;28;20049;-66
2021/06/06 04:23:55;;;;;;;1999.90;999.90;;;;;;;20.67;69.13;98503.44;5033653;28;20041;-65
2021/06/06 04:26:22;;;;;;;1999.90;999.90;;;;;;;20.78;69.16;98503.50;5034102;28;20049;-65
2021/06/06 04:28:49;;;;;;;1999.90;999.90;;;;;;;20.79;70.03;98505.13;5035584;28;20504;-65
2021/06/06 04:31:17;;;;;;;1999.90;999.90;;;;;;;20.74;68.82;98511.13;5032661;28;20072;-65
2021/06/06 04:33:44;;;;;;;1999.90;999.90;;;;;;;20.58;69.48;98512.16;5034963;28;20073;-66
2021/06/06 04:36:11;;;;;;;1999.90;999.90;;;;;;;20.65;68.63;98507.78;5034465;28;20111;-66
2021/06/06 04:38:38;;;;;;;1999.90;999.90;;;;;;;20.79;68.41;98510.75;5032924;28;20072;-65
2021/06/06 04:41:11;;;;;;;1999.90;999.90;;;;;;;20.97;68.03;98510.06;5022952;28;20053;-66
2021/06/06 04:43:38;;;;;;;1999.90;999.90;;;;;;;21.11;68.65;98513.75;5033746;28;20115;-65
2021/06/06 04:46:05;;;;;;;1999.90;999.90;;;;;;;19.56;73.34;98514.34;5033555;28;20053;-67
2021/06/06 04:48:36;;;;;;;1999.90;999.90;;;;;;;19.95;73.54;98514.00;5033655;28;20053;-67
2021/06/06 04:51:07;;;;;;;1999.90;999.90;;;;;;;20.26;72.63;98505.47;5034467;28;20045;-67
2021/06/06 04:53:34;;;;;;;1999.90;999.90;;;;;;;19.46;74.68;98503.78;5032192;28;20050;-66
2021/06/06 04:56:01;;;;;;;1999.90;999.90;;;;;;;19.46;75.51;98503.78;5032664;28;20100;-66
2021/06/06 04:58:30;;;;;;;1999.90;999.90;;;;;;;19.80;74.60;98506.59;5034930;28;20062;-66
2021/06/06 05:00:58;;;;;;;1999.90;999.90;;;;;;;20.11;73.64;98507.31;5033806;28;20045;-66
2021/06/06 05:03:26;;;;;;;1999.90;999.90;;;;;;;20.44;73.43;98505.63;5034030;28;20045;-66
2021/06/06 05:05:52;;;;;;;1999.90;999.90;;;;;;;20.44;72.79;98511.22;5034640;28;20454;-66
2021/06/06 05:08:23;;;;;;;1999.90;999.90;;;;;;;20.41;72.16;98515.66;5033092;28;20096;-66
2021/06/06 05:10:51;;;;;;;1999.90;999.90;;;;;;;20.83;71.66;98511.56;5032553;28;20346;-65
2021/06/06 05:13:20;;;;;;;1999.90;999.90;;;;;;;20.73;71.61;98513.09;5033698;28;20409;-66
2021/06/06 05:15:49;;;;;;;1999.90;999.90;;;;;;;21.25;70.41;98520.66;5033573;28;20199;-66
2021/06/06 05:18:17;;;;;;;1999.90;999.90;;;;;;;21.05;70.39;98518.16;5032115;28;20661;-66
2021/06/06 05:20:47;;;;;;;1999.90;999.90;;;;;;;21.42;69.31;98519.97;5034476;28;20104;-66
2021/06/06 05:23:18;;;;;;;1999.90;999.90;;;;;;;21.56;69.41;98521.25;5032483;28;20045;-66
2021/06/06 05:25:46;;;;;;;1999.90;999.90;;;;;;;21.34;69.42;98529.53;5033111;28;20473;-66
2021/06/06 05:28:17;;;;;;;1999.90;999.90;;;;;;;21.60;70.01;98525.69;5034311;28;20045;-66
2021/06/06 05:30:44;;;;;;;1999.90;999.90;;;;;;;21.39;71.52;98532.00;5032067;28;20049;-66
2021/06/06 05:33:12;;;;;;;1999.90;999.90;;;;;;;21.55;70.47;98528.88;5033319;28;20118;-66
2021/06/06 05:35:39;;;;;;;1999.90;999.90;;;;;;;21.34;69.65;98529.53;5033977;28;20057;-66
2021/06/06 05:38:08;;;;;;;1999.90;999.90;;;;;;;21.86;68.67;98537.03;5031359;28;20045;-66
2021/06/06 05:40:36;;;;;;;1999.90;999.90;;;;;;;22.40;67.15;98537.16;5033756;28;20293;-66
2021/06/06 05:43:04;;;;;;;1999.90;999.90;;;;;;;21.23;70.32;98543.56;5033035;28;20481;-66
2021/06/06 05:45:31;;;;;;;1999.90;999.90;;;;;;;21.61;69.94;98540.56;5030982;28;20393;-66
2021/06/06 05:47:58;;;;;;;1999.90;999.90;;;;;;;21.59;68.20;98542.97;5032318;28;20053;-66
2021/06/06 05:50:29;;;;;;;1999.90;999.90;;;;;;;22.04;67.65;98537.09;5033293;28;20058;-66
2021/06/06 05:52:55;;;;;;;1999.90;999.90;;;;;;;21.77;67.99;98538.19;5032607;28;20095;-66
2021/06/06 05:55:22;;;;;;;1999.90;999.90;;;;;;;22.11;67.53;98539.91;5032300;28;20493;-66
2021/06/06 05:57:53;;;;;;;1999.90;999.90;;;;;;;21.16;69.30;98546.31;5032459;28;20431;-66
2021/06/06 06:00:32;;;;;;;1999.90;999.90;;;;;;;21.72;68.36;98555.47;5033106;28;20099;-66
2021/06/06 06:02:59;;;;;;;1999.90;999.90;;;;;;;20.96;69.66;98548.63;5033619;28;20062;-66
2021/06/06 06:05:26;;;;;;;1999.90;999.90;;;;;;;21.70;67.83;98554.25;5032025;28;20049;-67
2021/06/06 06:07:52;;;;;;;1999.90;999.90;;;;;;;21.62;68.07;98553.44;5033204;28;20099;-65
2021/06/06 06:10:29;;;;;;;1999.90;999.90;;;;;;;21.76;68.18;98549.84;5033377;28;20049;-66
2021/06/06 06:12:56;;;;;;;1999.90;999.90;;;;;;;22.24;66.19;98540.31;5032165;28;20312;-66
2021/06/06 06:15:23;;;;;;;1999.90;999.90;;;;;;;21.85;66.04;98543.84;5032794;28;20398;-66
2021/06/06 06:17:50;;;;;;;1999.90;999.90;;;;;;;21.95;66.96;98540.28;5033542;28;20096;-66
2021/06/06 06:20:20;;;;;;;1999.90;999.90;;;;;;;22.29;66.00;98540.75;5031503;28;20057;-66
2021/06/06 06:22:47;;;;;;;1999.90;999.90;;;;;;;22.20;65.92;98536.72;5030329;28;20498;-66
2021/06/06 06:25:17;;;;;;;1999.90;999.90;;;;;;;22.16;65.44;98539.53;5031741;28;20084;-66
2021/06/06 06:27:44;;;;;;;1999.90;999.90;;;;;;;22.75;64.48;98535.59;5030207;28;20434;-67
2021/06/06 06:30:15;;;;;;;1999.90;999.90;;;;;;;22.96;63.52;98535.53;5031739;28;20045;-65
2021/06/06 06:32:42;;;;;;;1999.90;999.90;;;;;;;23.15;63.06;98539.16;5032883;28;20045;-65
2021/06/06 06:35:09;;;;;;;1999.90;999.90;;;;;;;22.69;64.63;98535.19;5031103;28;20057;-65
2021/06/06 06:37:36;;;;;;;1999.90;999.90;;;;;;;22.82;63.76;98549.66;5031640;28;20049;-66
2021/06/06 06:40:08;;;;;;;1999.90;999.90;;;;;;;23.72;61.82;98555.13;5032524;28;20049;-65
2021/06/06 06:42:36;;;;;;;1999.90;999.90;;;;;;;22.31;64.31;98557.25;5031499;28;20175;-65
2021/06/06 06:45:05;;;;;;;1999.90;999.90;;;;;;;23.25;63.70;98560.09;5032976;28;20350;-65
2021/06/06 06:47:33;;;;;;;1999.90;999.90;;;;;;;23.86;62.88;98555.09;5029153;28;20180;-66
2021/06/06 06:49:59;;;;;;;1999.90;999.90;;;;;;;24.39;60.11;98560.84;5032341;28;20430;-66
2021/06/06 06:52:26;;;;;;;1999.90;999.90;;;;;;;25.07;57.09;98557.50;5032792;28;20107;-66
2021/06/06 06:54:53;;;;;;;1999.90;999.90;;;;;;;25.26;56.35;98564.59;5029981;28;20057;-66
2021/06/06 06:57:20;;;;;;;1999.90;999.90;;;;;;;25.30;55.79;98564.56;5031901;28;20049;-66
2021/06/06 06:59:47;;;;;;;1999.90;999.90;;;;;;;23.87;60.35;98559.50;5027177;28;20066;-66
2021/06/06 07:02:14;;;;;;;1999.90;999.90;;;;;;;23.62;60.25;98567.25;5028503;28;20057;-66
2021/06/06 07:04:40;;;;;;;1999.90;999.90;;;;;;;23.69;60.60;98561.59;5032380;28;20072;-66
2021/06/06 07:07:08;;;;;;;1999.90;999.90;;;;;;;23.73;60.43;98566.00;5032236;28;20430;-67
2021/06/06 07:09:34;;;;;;;1999.90;999.90;;;;;;;23.82;59.87;98556.28;5029548;28;20496;-66
2021/06/06 07:12:01;;;;;;;1999.90;999.90;;;;;;;22.65;63.35;98548.47;5032370;28;20068;-65
2021/06/06 07:14:28;;;;;;;1999.90;999.90;;;;;;;22.42;63.54;98557.28;5032552;28;20065;-66
2021/06/06 07:16:55;;;;;;;1999.90;999.90;;;;;;;23.75;58.00;98554.31;5031510;28;20529;-66
2021/06/06 07:19:21;;;;;;;1999.90;999.90;;;;;;;24.07;58.34;98556.19;5031872;28;20385;-65
2021/06/06 07:21:48;;;;;;;1999.90;999.90;;;;;;;24.93;58.33;98555.56;5031071;28;20094;-65
2021/06/06 07:24:15;;;;;;;1999.90;999.90;;;;;;;24.21;59.01;98555.31;5029939;28;20419;-66
2021/06/06 07:26:45;;;;;;;1999.90;999.90;;;;;;;23.97;59.68;98565.50;5031753;28;20045;-66
2021/06/06 07:29:14;;;;;;;1999.90;999.90;;;;;;;24.02;59.43;98554.59;5030976;28;20430;-66
2021/06/06 07:31:43;;;;;;;1999.90;999.90;;;;;;;24.70;59.19;98561.06;5031254;28;20253;-65
2021/06/06 07:34:13;;;;;;;1999.90;999.90;;;;;;;24.81;56.31;98556.09;5032086;28;20124;-67
2021/06/06 07:36:40;;;;;;;1999.90;999.90;;;;;;;24.63;55.38;98564.72;5034919;28;20358;-65
2021/06/06 07:39:07;;;;;;;1999.90;999.90;;;;;;;24.68;56.94;98560.66;5034736;28;20054;-65
2021/06/06 07:41:34;;;;;;;1999.90;999.90;;;;;;;25.25;55.31;98560.13;5034754;28;20076;-65
2021/06/06 07:44:01;;;;;;;1999.90;999.90;;;;;;;24.89;56.24;98560.47;5035358;28;20132;-65
2021/06/06 07:46:28;;;;;;;1999.90;999.90;;;;;;;23.51;58.82;98565.28;5033900;28;20049;-65
2021/06/06 07:48:58;;;;;;;1999.90;999.90;;;;;;;23.29;57.08;98552.44;5035224;28;20045;-65
2021/06/06 07:51:25;;;;;;;1999.90;999.90;;;;;;;24.72;55.60;98561.44;5033555;28;20110;-65
2021/06/06 07:53:51;;;;;;;1999.90;999.90;;;;;;;24.38;55.29;98559.22;5033736;28;20387;-66
2021/06/06 07:56:18;;;;;;;1999.90;999.90;;;;;;;24.26;54.67;98552.81;5036067;28;20096;-66
2021/06/06 07:58:45;;;;;;;1999.90;999.90;;;;;;;24.41;56.81;98553.56;5034687;28;20393;-66
2021/06/06 08:01:12;;;;;;;1999.90;999.90;;;;;;;24.58;54.95;98562.31;5034793;28;20111;-66
2021/06/06 08:03:39;;;;;;;1999.90;999.90;;;;;;;24.72;57.74;98558.59;5035424;28;20049;-66
2021/06/06 08:06:10;;;;;;;1999.90;999.90;;;;;;;24.60;55.58;98560.69;5029233;28;20057;-66
2021/06/06 08:08:36;;;;;;;1999.90;999.90;;;;;;;24.23;58.88;98559.31;5035630;28;20115;-65
2021/06/06 08:11:05;;;;;;;1999.90;999.90;;;;;;;24.17;56.15;98560.16;5035095;28;20284;-66
2021/06/06 08:13:32;;;;;;;1999.90;999.90;;;;;;;23.96;56.24;98552.63;5023093;28;20053;-66
2021/06/06 08:16:00;;;;;;;1999.90;999.90;;;;;;;24.37;58.13;98549.97;5032679;28;20049;-66
2021/06/06 08:18:37;;;;;;;1999.90;999.90;;;;;;;25.26;54.43;98550.44;5030319;28;20045;-66
2021/06/06 08:21:09;;;;;;;1999.90;999.90;;;;;;;25.17;54.03;98555.75;5030942;28;20500;-65
2021/06/06 08:23:37;;;;;;;1999.90;999.90;;;;;;;25.22;54.75;98552.50;5025263;28;20120;-65
2021/06/06 08:26:05;;;;;;;1999.90;999.90;;;;;;;24.79;57.78;98550.06;5031596;28;20107;-65
2021/06/06 08:28:32;;;;;;;1999.90;999.90;;;;;;;24.68;54.89;98546.50;5031045;28;20127;-66
2021/06/06 08:31:04;;;;;;;1999.90;999.90;;;;;;;24.32;54.63;98549.59;5031597;28;20084;-67
2021/06/06 08:33:32;;;;;;;;;;;;;;;23.29;58.99;98546.81;5028788;28;20069;-67
2021/06/06 08:36:06;;;;;;;1999.90;999.90;;;;;;;23.97;57.21;98554.22;5029984;28;19924;-65
2021/06/06 08:38:34;;;;;;;1999.90;999.90;;;;;;;23.52;55.71;98555.59;5031483;28;20155;-66
2021/06/06 08:41:08;;;;;;;1999.90;999.90;;;;;;;23.68;57.49;98554.31;5030482;28;20488;-66
2021/06/06 08:43:50;;;;;;;1999.90;999.90;;;;;;;23.79;56.20;98552.28;5022089;28;20053;-66
2021/06/06 08:46:19;;;;;;;1999.90;999.90;;;;;;;23.48;56.41;98554.81;5024099;28;21195;-66
2021/06/06 08:48:46;;;;;;;1999.90;999.90;;;;;;;23.99;56.38;98551.81;5025955;28;20050;-66
2021/06/06 08:51:44;;;;;;;1999.90;999.90;;;;;;;24.65;55.36;98547.34;5026832;28;20057;-66
2021/06/06 08:54:26;;;;;;;1999.90;999.90;;;;;;;24.45;54.28;98550.69;5030454;28;20383;-64
2021/06/06 08:57:02;;;;;;;1999.90;999.90;;;;;;;24.86;55.88;98555.66;5028747;28;20050;-66
2021/06/06 08:59:38;;;;;;;1999.90;999.90;;;;;;;26.04;49.39;98554.78;5028143;28;20195;-66
2021/06/06 09:02:15;;;;;;;1999.90;999.90;;;;;;;26.33;49.23;98553.16;5031016;28;20358;-66
2021/06/06 09:04:42;;;;;;;1999.90;999.90;;;;;;;26.09;49.79;98552.28;5029897;28;20129;-66
2021/06/06 09:07:32;;;;;;;1999.90;999.90;;;;;;;26.00;50.29;98561.31;5027476;28;20065;-66
2021/06/06 09:10:07;;;;;;;1999.90;999.90;;;;;;;24.84;51.94;98552.44;5023581;28;20131;-65
2021/06/06 09:12:34;;;;;;;1999.90;999.90;;;;;;;23.87;50.77;98553.88;5027915;28;20108;-65
2021/06/06 09:15:02;;;;;;;1999.90;999.90;;;;;;;24.94;55.00;98540.22;5026889;28;20102;-66
2021/06/06 09:17:51;;;;;;;1999.90;999.90;;;;;;;25.35;51.60;98551.97;5028707;28;20111;-65
2021/06/06 09:20:23;;;;;;;1999.90;999.90;;;;;;;26.00;49.44;98535.81;5028024;28;20045;-66
2021/06/06 09:22:50;;;;;;;1999.90;999.90;;;;;;;26.55;48.51;98552.84;5027061;28;20103;-66
2021/06/06 09:25:34;;;;;;;1999.90;999.90;;;;;;;26.79;48.35;98547.22;5030698;28;20103;-67
2021/06/06 09:28:02;;;;;;;1999.90;999.90;;;;;;;25.98;48.90;98549.59;5026266;28;20059;-67
2021/06/06 09:30:31;;;;;;;1999.90;999.90;;;;;;;26.13;48.70;98549.44;5025586;28;20103;-66
2021/06/06 09:33:13;;;;;;;1999.90;999.90;;;;;;;26.19;48.38;98547.72;5028045;28;20120;-66
2021/06/06 09:35:51;;;;;;;1999.90;999.90;;;;;;;25.20;48.87;98540.78;5026821;28;20438;-66
2021/06/06 09:38:40;;;;;;;1999.90;999.90;;;;;;;26.34;48.08;98537.75;5026725;28;20111;-66
2021/06/06 09:41:40;;;;;;;1999.90;999.90;;;;;;;26.67;48.01;98538.09;5027811;28;20049;-66
2021/06/06 09:44:13;;;;;;;1999.90;999.90;;;;;;;27.85;46.50;98533.47;5028675;28;20076;-66
2021/06/06 09:46:48;;;;;;;1999.90;999.90;;;;;;;26.93;42.42;98534.81;5026771;28;20076;-65
2021/06/06 09:49:26;;;;;;;1999.90;999.90;;;;;;;26.26;45.78;98539.13;5025690;28;20413;-66
2021/06/06 09:51:56;;;;;;;1999.90;999.90;;;;;;;27.75;42.36;98532.47;5028541;28;20045;-67
2021/06/06 09:54:31;;;;;;;1999.90;999.90;;;;;;;28.42;44.71;98532.22;5028020;28;20068;-65
2021/06/06 09:57:01;;;;;;;1999.90;999.90;;;;;;;27.66;44.41;98538.75;5026283;28;20046;-65
2021/06/06 09:59:31;;;;;;;1999.90;999.90;;;;;;;28.60;39.69;98528.16;5026215;28;20103;-65
2021/06/06 10:02:14;;;;;;;1999.90;999.90;;;;;;;27.20;42.71;98531.91;5027069;28;20061;-66
2021/06/06 10:04:45;;;;;;;1999.90;999.90;;;;;;;25.16;46.99;98540.03;5028759;28;20065;-67
2021/06/06 10:07:36;;;;;;;1999.90;999.90;;;;;;;25.27;47.78;98531.41;5029126;28;20147;-66
2021/06/06 10:10:18;;;;;;;1999.90;999.90;;;;;;;26.36;45.36;98532.50;5028205;28;20080;-66
2021/06/06 10:12:50;;;;;;;1999.90;999.90;;;;;;;24.03;48.96;98527.19;5026670;28;20045;-65
2021/06/06 10:15:36;;;;;;;1999.90;999.90;;;;;;;24.69;48.88;98519.88;5042564;28;20095;-65
2021/06/06 10:18:37;;;;;;;1999.90;999.90;;;;;;;25.73;48.24;98523.63;5028583;28;20053;-66
2021/06/06 10:21:20;;;;;;;1999.90;999.90;;;;;;;26.74;47.87;98520.16;5028477;28;20072;-66
2021/06/06 10:24:07;;;;;;;1999.90;999.90;;;;;;;26.58;46.17;98529.28;5028686;28;20092;-66
2021/06/06 10:26:41;;;;;;;1999.90;999.90;;;;;;;27.29;47.41;98529.31;5027442;28;20500;-66
2021/06/06 10:29:27;;;;;;;1999.90;999.90;;;;;;;28.64;41.02;98523.16;5030160;28;20496;-66
2021/06/06 10:32:27;;;;;;;1999.90;999.90;;;;;;;28.47;40.39;98528.03;5025241;28;20107;-67
2021/06/06 10:34:57;;;;;;;1999.90;999.90;;;;;;;27.10;40.00;98521.56;5027470;28;20057;-66
2021/06/06 10:37:30;;;;;;;1999.90;999.90;;;;;;;25.61;44.47;98525.78;5029698;28;20143;-66
2021/06/06 10:40:09;;;;;;;1999.90;999.90;;;;;;;26.35;45.93;98516.69;5027448;28;20053;-65
2021/06/06 10:42:59;;;;;;;1999.90;999.90;;;;;;;26.32;45.15;98519.56;5026224;28;20107;-65
2021/06/06 10:46:07;;;;;;;1999.90;999.90;;;;;;;26.39;45.81;98527.97;5027918;28;20049;-64
2021/06/06 10:48:45;;;;;;;1999.90;999.90;;;;;;;27.96;41.82;98521.88;5024355;28;20437;-66
2021/06/06 10:51:38;;;;;;;1999.90;999.90;;;;;;;28.81;38.80;98519.09;5042182;28;20690;-66
2021/06/06 10:54:32;;;;;;;1999.90;999.90;;;;;;;29.23;43.83;98507.03;5023994;28;20956;-66
2021/06/06 10:57:08;;;;;;;1999.90;999.90;;;;;;;28.65;37.82;98509.78;5026281;28;20136;-67
2021/06/06 10:59:43;;;;;;;1999.90;999.90;;;;;;;27.91;39.43;98512.66;5043448;28;20187;-66
2021/06/06 11:02:35;;;;;;;1999.90;999.90;;;;;;;27.10;39.88;98504.53;5028422;28;20057;-66
2021/06/06 11:05:25;;;;;;;1999.90;999.90;;;;;;;26.64;43.77;98507.72;5028080;28;20057;-65
2021/06/06 11:07:53;;;;;;;1999.90;999.90;;;;;;;27.09;42.32;98503.72;5018107;28;20064;-66
2021/06/06 11:10:22;;;;;;;1999.90;999.90;;;;;;;28.79;39.39;98507.34;5032105;28;20053;-67
2021/06/06 11:12:58;;;;;;;1999.90;999.90;;;;;;;28.09;37.15;98506.59;5048090;28;20111;-65
2021/06/06 11:15:40;;;;;;;1999.90;999.90;;;;;;;29.38;35.80;98504.59;5031752;28;20439;-66
2021/06/06 11:18:22;;;;;;;1999.90;999.90;;;;;;;30.07;36.30;98506.22;5048143;28;20053;-65